EJU12ZD LIMC-LKPR
Flight info
| Callsign | EJU12ZD |
|---|---|
| Flight time | N/A |
| Altitude | 32000 |
| Route | OSKOR DCT NESTI DCT TAGIP DCT VESAL DCT MOBDO/N0452F310 DCT VERDA DCT NEMAL DCT MEDEL DCT APRAQ |
| Aircraft | A320/M-SDE3FGHIRWY/LB1 |
Departure
| Time | 2026-05-07 14:21 |
|---|---|
| Airport | Milan Malpensa International Airport (LIMC) |
Arrival
| Time | N/A |
|---|---|
| Airport | Václav Havel Airport Prague (LKPR) |
| Time | Latitude | Longitude | Altitude | Speed | Heading |
|---|---|---|---|---|---|
| 2026-05-07 13:41 | 45.64548 | 8.72409 | 752 ft | 0 kts | 349° |
| 2026-05-07 14:09 | 45.64544 | 8.72411 | 748 ft | 3 kts | 349° |
| 2026-05-07 14:09 | 45.64524 | 8.72415 | 748 ft | 3 kts | 352° |
| 2026-05-07 14:09 | 45.64504 | 8.72419 | 748 ft | 3 kts | 356° |
| 2026-05-07 14:10 | 45.64484 | 8.72420 | 748 ft | 3 kts | 2° |
| 2026-05-07 14:10 | 45.64464 | 8.72417 | 748 ft | 3 kts | 19° |
| 2026-05-07 14:10 | 45.64449 | 8.72405 | 751 ft | 3 kts | 61° |
| 2026-05-07 14:10 | 45.64445 | 8.72392 | 748 ft | 1 kts | 79° |
| 2026-05-07 14:11 | 45.64445 | 8.72390 | 748 ft | 0 kts | 79° |
| 2026-05-07 14:12 | 45.64445 | 8.72391 | 748 ft | 0 kts | 79° |
| 2026-05-07 14:13 | 45.64448 | 8.72417 | 748 ft | 8 kts | 79° |
| 2026-05-07 14:13 | 45.64460 | 8.72504 | 750 ft | 8 kts | 79° |
| 2026-05-07 14:13 | 45.64469 | 8.72577 | 752 ft | 7 kts | 79° |
| 2026-05-07 14:13 | 45.64464 | 8.72644 | 751 ft | 10 kts | 119° |
| 2026-05-07 14:14 | 45.64372 | 8.72678 | 751 ft | 17 kts | 178° |
| 2026-05-07 14:14 | 45.64243 | 8.72706 | 752 ft | 19 kts | 169° |
| 2026-05-07 14:14 | 45.64118 | 8.72742 | 749 ft | 20 kts | 168° |
| 2026-05-07 14:14 | 45.63980 | 8.72781 | 748 ft | 20 kts | 169° |
| 2026-05-07 14:15 | 45.63927 | 8.72668 | 750 ft | 18 kts | 280° |
| 2026-05-07 14:15 | 45.63841 | 8.72596 | 750 ft | 18 kts | 168° |
| 2026-05-07 14:15 | 45.63715 | 8.72631 | 748 ft | 19 kts | 169° |
| 2026-05-07 14:15 | 45.63580 | 8.72668 | 752 ft | 20 kts | 169° |
| 2026-05-07 14:16 | 45.63437 | 8.72708 | 752 ft | 22 kts | 169° |
| 2026-05-07 14:16 | 45.63285 | 8.72749 | 750 ft | 23 kts | 169° |
| 2026-05-07 14:16 | 45.63125 | 8.72794 | 750 ft | 24 kts | 169° |
| 2026-05-07 14:16 | 45.62959 | 8.72840 | 752 ft | 25 kts | 169° |
| 2026-05-07 14:17 | 45.62785 | 8.72887 | 751 ft | 26 kts | 169° |
| 2026-05-07 14:17 | 45.62606 | 8.72937 | 750 ft | 27 kts | 168° |
| 2026-05-07 14:17 | 45.62420 | 8.72989 | 750 ft | 27 kts | 169° |
| 2026-05-07 14:17 | 45.62231 | 8.73039 | 749 ft | 28 kts | 169° |
| 2026-05-07 14:18 | 45.62037 | 8.73093 | 749 ft | 29 kts | 169° |
| 2026-05-07 14:18 | 45.61842 | 8.73147 | 751 ft | 25 kts | 168° |
| 2026-05-07 14:18 | 45.61732 | 8.73221 | 749 ft | 17 kts | 133° |
| 2026-05-07 14:18 | 45.61665 | 8.73350 | 749 ft | 11 kts | 122° |
| 2026-05-07 14:19 | 45.61627 | 8.73437 | 749 ft | 10 kts | 121° |
| 2026-05-07 14:19 | 45.61597 | 8.73515 | 749 ft | 8 kts | 115° |
| 2026-05-07 14:19 | 45.61583 | 8.73600 | 751 ft | 9 kts | 92° |
| 2026-05-07 14:19 | 45.61602 | 8.73708 | 744 ft | 13 kts | 59° |
| 2026-05-07 14:20 | 45.61690 | 8.73717 | 745 ft | 19 kts | 349° |
| 2026-05-07 14:20 | 45.62045 | 8.73617 | 744 ft | 88 kts | 349° |
| 2026-05-07 14:20 | 45.62846 | 8.73397 | 742 ft | 144 kts | 349° |
| 2026-05-07 14:20 | 45.63991 | 8.73081 | 885 ft | 177 kts | 348° |
| 2026-05-07 14:21 | 45.65184 | 8.73012 | 1638 ft | 176 kts | 14° |
| 2026-05-07 14:21 | 45.66239 | 8.73928 | 2120 ft | 189 kts | 51° |
| 2026-05-07 14:21 | 45.66820 | 8.75690 | 2501 ft | 205 kts | 75° |
| 2026-05-07 14:21 | 45.67366 | 8.77621 | 3074 ft | 214 kts | 50° |
| 2026-05-07 14:22 | 45.68473 | 8.79052 | 3841 ft | 215 kts | 39° |
| 2026-05-07 14:22 | 45.69680 | 8.80377 | 4639 ft | 217 kts | 37° |
| 2026-05-07 14:22 | 45.70892 | 8.81670 | 5428 ft | 218 kts | 37° |
| 2026-05-07 14:22 | 45.72076 | 8.83029 | 6206 ft | 219 kts | 50° |
| 2026-05-07 14:23 | 45.72669 | 8.84971 | 6824 ft | 222 kts | 89° |
| 2026-05-07 14:23 | 45.72275 | 8.87184 | 7214 ft | 239 kts | 127° |
| 2026-05-07 14:23 | 45.71107 | 8.88925 | 7795 ft | 248 kts | 135° |
| 2026-05-07 14:23 | 45.70002 | 8.90840 | 8535 ft | 252 kts | 126° |
| 2026-05-07 14:24 | 45.69009 | 8.92892 | 9294 ft | 256 kts | 124° |
| 2026-05-07 14:24 | 45.67999 | 8.95060 | 10077 ft | 261 kts | 124° |
| 2026-05-07 14:24 | 45.66992 | 8.97198 | 10776 ft | 265 kts | 125° |
| 2026-05-07 14:24 | 45.65940 | 8.99377 | 11489 ft | 268 kts | 126° |
| 2026-05-07 14:25 | 45.65043 | 9.01738 | 12173 ft | 273 kts | 110° |
| 2026-05-07 14:25 | 45.64600 | 9.04431 | 12634 ft | 289 kts | 94° |
| 2026-05-07 14:25 | 45.64594 | 9.07419 | 12843 ft | 312 kts | 89° |
| 2026-05-07 14:25 | 45.64634 | 9.10647 | 13024 ft | 336 kts | 89° |
| 2026-05-07 14:26 | 45.64671 | 9.14107 | 13171 ft | 359 kts | 89° |
| 2026-05-07 14:26 | 45.64700 | 9.17763 | 13393 ft | 375 kts | 89° |
| 2026-05-07 14:26 | 45.64724 | 9.21533 | 13823 ft | 383 kts | 89° |
| 2026-05-07 14:26 | 45.64742 | 9.25350 | 14193 ft | 387 kts | 90° |
| 2026-05-07 14:27 | 45.64757 | 9.29216 | 14786 ft | 391 kts | 89° |
| 2026-05-07 14:27 | 45.64772 | 9.33118 | 15390 ft | 394 kts | 89° |
| 2026-05-07 14:27 | 45.64785 | 9.37015 | 15975 ft | 398 kts | 90° |
| 2026-05-07 14:27 | 45.64796 | 9.40986 | 16627 ft | 401 kts | 89° |
| 2026-05-07 14:28 | 45.64799 | 9.42187 | 16799 ft | 403 kts | 90° |